sensor_id;sensor_type;location;lat;lon;timestamp;P1;durP1;ratioP1;P2;durP2;ratioP2
9759;SDS011;4919;48.792;9.202;2022-09-02T00:01:57;3.57;;;2.13;;
9759;SDS011;4919;48.792;9.202;2022-09-02T00:04:25;3.00;;;2.20;;
9759;SDS011;4919;48.792;9.202;2022-09-02T00:06:53;3.63;;;2.10;;
9759;SDS011;4919;48.792;9.202;2022-09-02T00:09:20;5.00;;;2.20;;
9759;SDS011;4919;48.792;9.202;2022-09-02T00:11:49;2.40;;;2.20;;
9759;SDS011;4919;48.792;9.202;2022-09-02T00:14:24;3.40;;;2.10;;
9759;SDS011;4919;48.792;9.202;2022-09-02T00:16:53;2.70;;;1.90;;
9759;SDS011;4919;48.792;9.202;2022-09-02T00:19:22;4.63;;;2.20;;
9759;SDS011;4919;48.792;9.202;2022-09-02T00:21:50;2.30;;;2.10;;
9759;SDS011;4919;48.792;9.202;2022-09-02T00:24:19;2.87;;;2.20;;
9759;SDS011;4919;48.792;9.202;2022-09-02T00:26:47;3.57;;;2.20;;
9759;SDS011;4919;48.792;9.202;2022-09-02T00:29:15;4.73;;;1.93;;
9759;SDS011;4919;48.792;9.202;2022-09-02T00:31:42;4.00;;;2.40;;
9759;SDS011;4919;48.792;9.202;2022-09-02T00:34:10;3.73;;;2.23;;
9759;SDS011;4919;48.792;9.202;2022-09-02T00:36:38;3.43;;;2.30;;
9759;SDS011;4919;48.792;9.202;2022-09-02T00:39:05;2.30;;;2.03;;
9759;SDS011;4919;48.792;9.202;2022-09-02T00:41:34;2.23;;;2.00;;
9759;SDS011;4919;48.792;9.202;2022-09-02T00:44:07;2.23;;;2.00;;
9759;SDS011;4919;48.792;9.202;2022-09-02T00:46:37;2.37;;;2.00;;
9759;SDS011;4919;48.792;9.202;2022-09-02T00:49:24;3.57;;;1.90;;
9759;SDS011;4919;48.792;9.202;2022-09-02T00:54:34;3.17;;;2.00;;
9759;SDS011;4919;48.792;9.202;2022-09-02T00:57:09;2.63;;;1.90;;
9759;SDS011;4919;48.792;9.202;2022-09-02T00:59:53;2.57;;;2.03;;
9759;SDS011;4919;48.792;9.202;2022-09-02T01:02:48;3.13;;;1.97;;
9759;SDS011;4919;48.792;9.202;2022-09-02T01:05:18;2.37;;;2.00;;
9759;SDS011;4919;48.792;9.202;2022-09-02T01:07:46;2.27;;;2.00;;
9759;SDS011;4919;48.792;9.202;2022-09-02T01:10:14;2.97;;;1.93;;
9759;SDS011;4919;48.792;9.202;2022-09-02T01:12:45;3.03;;;1.80;;
9759;SDS011;4919;48.792;9.202;2022-09-02T01:15:14;3.10;;;1.90;;
9759;SDS011;4919;48.792;9.202;2022-09-02T01:17:42;2.70;;;2.00;;
9759;SDS011;4919;48.792;9.202;2022-09-02T01:20:14;3.17;;;2.47;;
9759;SDS011;4919;48.792;9.202;2022-09-02T01:22:43;2.67;;;1.90;;
9759;SDS011;4919;48.792;9.202;2022-09-02T01:25:16;2.33;;;2.00;;
9759;SDS011;4919;48.792;9.202;2022-09-02T01:27:45;2.40;;;2.10;;
9759;SDS011;4919;48.792;9.202;2022-09-02T01:30:15;2.63;;;1.87;;
9759;SDS011;4919;48.792;9.202;2022-09-02T01:32:44;2.47;;;2.00;;
9759;SDS011;4919;48.792;9.202;2022-09-02T01:35:12;1.90;;;1.70;;
9759;SDS011;4919;48.792;9.202;2022-09-02T01:37:41;2.57;;;1.97;;
9759;SDS011;4919;48.792;9.202;2022-09-02T01:40:21;7.60;;;2.03;;
9759;SDS011;4919;48.792;9.202;2022-09-02T01:42:48;3.27;;;1.80;;
9759;SDS011;4919;48.792;9.202;2022-09-02T01:45:20;2.67;;;1.77;;
9759;SDS011;4919;48.792;9.202;2022-09-02T01:47:48;2.00;;;1.80;;
9759;SDS011;4919;48.792;9.202;2022-09-02T01:50:15;4.20;;;2.00;;
9759;SDS011;4919;48.792;9.202;2022-09-02T01:52:42;2.50;;;1.70;;
9759;SDS011;4919;48.792;9.202;2022-09-02T01:55:09;4.50;;;1.77;;
9759;SDS011;4919;48.792;9.202;2022-09-02T01:57:36;2.10;;;1.80;;
9759;SDS011;4919;48.792;9.202;2022-09-02T02:00:09;5.13;;;2.17;;
9759;SDS011;4919;48.792;9.202;2022-09-02T02:02:38;2.03;;;1.83;;
9759;SDS011;4919;48.792;9.202;2022-09-02T02:05:09;2.33;;;1.80;;
9759;SDS011;4919;48.792;9.202;2022-09-02T02:07:38;2.10;;;1.90;;
9759;SDS011;4919;48.792;9.202;2022-09-02T02:10:05;2.83;;;2.00;;
9759;SDS011;4919;48.792;9.202;2022-09-02T02:12:34;2.37;;;1.80;;
9759;SDS011;4919;48.792;9.202;2022-09-02T02:15:03;2.47;;;2.00;;
9759;SDS011;4919;48.792;9.202;2022-09-02T02:17:33;2.00;;;1.80;;
9759;SDS011;4919;48.792;9.202;2022-09-02T02:20:00;2.23;;;2.00;;
9759;SDS011;4919;48.792;9.202;2022-09-02T02:22:27;2.67;;;1.80;;
9759;SDS011;4919;48.792;9.202;2022-09-02T02:24:54;6.43;;;1.90;;
9759;SDS011;4919;48.792;9.202;2022-09-02T02:27:21;2.67;;;2.10;;
9759;SDS011;4919;48.792;9.202;2022-09-02T02:29:48;1.70;;;1.60;;
9759;SDS011;4919;48.792;9.202;2022-09-02T02:32:16;3.77;;;1.80;;
9759;SDS011;4919;48.792;9.202;2022-09-02T02:34:44;2.20;;;1.90;;
9759;SDS011;4919;48.792;9.202;2022-09-02T02:37:12;3.03;;;1.90;;
9759;SDS011;4919;48.792;9.202;2022-09-02T02:39:40;3.53;;;2.10;;
9759;SDS011;4919;48.792;9.202;2022-09-02T02:42:08;2.27;;;1.77;;
9759;SDS011;4919;48.792;9.202;2022-09-02T02:44:39;2.33;;;1.80;;
9759;SDS011;4919;48.792;9.202;2022-09-02T02:47:07;2.67;;;1.83;;
9759;SDS011;4919;48.792;9.202;2022-09-02T02:49:35;1.80;;;1.70;;
9759;SDS011;4919;48.792;9.202;2022-09-02T02:52:03;2.33;;;1.83;;
9759;SDS011;4919;48.792;9.202;2022-09-02T02:54:30;2.40;;;1.70;;
9759;SDS011;4919;48.792;9.202;2022-09-02T02:57:01;3.40;;;1.70;;
9759;SDS011;4919;48.792;9.202;2022-09-02T02:59:29;2.53;;;1.90;;
9759;SDS011;4919;48.792;9.202;2022-09-02T03:01:57;1.83;;;1.70;;
9759;SDS011;4919;48.792;9.202;2022-09-02T03:04:25;3.20;;;1.90;;
9759;SDS011;4919;48.792;9.202;2022-09-02T03:06:52;3.27;;;1.90;;
9759;SDS011;4919;48.792;9.202;2022-09-02T03:09:19;4.13;;;2.20;;
9759;SDS011;4919;48.792;9.202;2022-09-02T03:11:46;3.00;;;2.00;;
9759;SDS011;4919;48.792;9.202;2022-09-02T03:14:14;2.47;;;1.80;;
9759;SDS011;4919;48.792;9.202;2022-09-02T03:16:42;3.90;;;2.13;;
9759;SDS011;4919;48.792;9.202;2022-09-02T03:19:10;3.43;;;1.87;;
9759;SDS011;4919;48.792;9.202;2022-09-02T03:21:40;3.30;;;2.07;;
9759;SDS011;4919;48.792;9.202;2022-09-02T03:24:09;5.03;;;2.20;;
9759;SDS011;4919;48.792;9.202;2022-09-02T03:26:38;4.27;;;2.00;;
9759;SDS011;4919;48.792;9.202;2022-09-02T03:29:06;3.10;;;1.90;;
9759;SDS011;4919;48.792;9.202;2022-09-02T03:31:33;2.20;;;1.87;;
9759;SDS011;4919;48.792;9.202;2022-09-02T03:34:00;2.47;;;1.93;;
9759;SDS011;4919;48.792;9.202;2022-09-02T03:36:30;2.07;;;1.70;;
9759;SDS011;4919;48.792;9.202;2022-09-02T03:39:00;2.53;;;1.80;;
9759;SDS011;4919;48.792;9.202;2022-09-02T03:41:29;3.30;;;1.93;;
9759;SDS011;4919;48.792;9.202;2022-09-02T03:43:57;2.10;;;1.90;;
9759;SDS011;4919;48.792;9.202;2022-09-02T03:46:26;1.80;;;1.60;;
9759;SDS011;4919;48.792;9.202;2022-09-02T03:48:54;2.50;;;2.10;;
9759;SDS011;4919;48.792;9.202;2022-09-02T03:51:21;2.47;;;2.03;;
9759;SDS011;4919;48.792;9.202;2022-09-02T03:53:50;2.23;;;1.80;;
9759;SDS011;4919;48.792;9.202;2022-09-02T03:56:17;2.27;;;2.07;;
9759;SDS011;4919;48.792;9.202;2022-09-02T03:58:46;2.87;;;1.93;;
9759;SDS011;4919;48.792;9.202;2022-09-02T04:01:20;2.20;;;1.90;;
9759;SDS011;4919;48.792;9.202;2022-09-02T04:03:50;2.90;;;1.97;;
9759;SDS011;4919;48.792;9.202;2022-09-02T04:06:19;3.80;;;2.30;;
9759;SDS011;4919;48.792;9.202;2022-09-02T04:08:53;2.87;;;2.20;;
9759;SDS011;4919;48.792;9.202;2022-09-02T04:11:21;2.20;;;2.00;;
9759;SDS011;4919;48.792;9.202;2022-09-02T04:13:51;4.00;;;2.10;;
9759;SDS011;4919;48.792;9.202;2022-09-02T04:16:23;2.57;;;2.00;;
9759;SDS011;4919;48.792;9.202;2022-09-02T04:19:02;3.03;;;2.20;;
9759;SDS011;4919;48.792;9.202;2022-09-02T04:21:32;2.40;;;1.90;;
9759;SDS011;4919;48.792;9.202;2022-09-02T04:24:00;3.03;;;2.10;;
9759;SDS011;4919;48.792;9.202;2022-09-02T04:26:27;2.77;;;2.40;;
9759;SDS011;4919;48.792;9.202;2022-09-02T04:28:56;3.80;;;2.30;;
9759;SDS011;4919;48.792;9.202;2022-09-02T04:31:25;3.27;;;2.00;;
9759;SDS011;4919;48.792;9.202;2022-09-02T04:33:55;4.90;;;1.90;;
9759;SDS011;4919;48.792;9.202;2022-09-02T04:36:24;3.57;;;2.53;;
9759;SDS011;4919;48.792;9.202;2022-09-02T04:38:58;4.47;;;2.23;;
9759;SDS011;4919;48.792;9.202;2022-09-02T04:41:29;2.30;;;2.10;;
9759;SDS011;4919;48.792;9.202;2022-09-02T04:44:00;2.70;;;2.27;;
9759;SDS011;4919;48.792;9.202;2022-09-02T04:46:33;4.00;;;2.30;;
9759;SDS011;4919;48.792;9.202;2022-09-02T04:49:05;2.83;;;2.10;;
9759;SDS011;4919;48.792;9.202;2022-09-02T04:51:32;2.83;;;2.10;;
9759;SDS011;4919;48.792;9.202;2022-09-02T04:54:01;3.83;;;2.13;;
9759;SDS011;4919;48.792;9.202;2022-09-02T04:56:29;4.50;;;2.40;;
9759;SDS011;4919;48.792;9.202;2022-09-02T04:58:59;3.33;;;2.30;;
9759;SDS011;4919;48.792;9.202;2022-09-02T05:01:28;7.37;;;2.30;;
9759;SDS011;4919;48.792;9.202;2022-09-02T05:04:03;4.97;;;2.40;;
9759;SDS011;4919;48.792;9.202;2022-09-02T05:06:35;4.57;;;2.40;;
9759;SDS011;4919;48.792;9.202;2022-09-02T05:09:12;4.60;;;2.10;;
9759;SDS011;4919;48.792;9.202;2022-09-02T05:11:40;4.23;;;2.20;;
9759;SDS011;4919;48.792;9.202;2022-09-02T05:14:08;5.10;;;2.43;;
9759;SDS011;4919;48.792;9.202;2022-09-02T05:16:38;5.00;;;2.17;;
9759;SDS011;4919;48.792;9.202;2022-09-02T05:19:10;2.80;;;2.50;;
9759;SDS011;4919;48.792;9.202;2022-09-02T05:21:44;4.60;;;2.60;;
9759;SDS011;4919;48.792;9.202;2022-09-02T05:24:20;5.67;;;2.37;;
9759;SDS011;4919;48.792;9.202;2022-09-02T05:26:52;3.13;;;2.53;;
9759;SDS011;4919;48.792;9.202;2022-09-02T05:29:20;5.73;;;2.40;;
9759;SDS011;4919;48.792;9.202;2022-09-02T05:31:49;7.10;;;2.50;;
9759;SDS011;4919;48.792;9.202;2022-09-02T05:34:19;3.93;;;2.43;;
9759;SDS011;4919;48.792;9.202;2022-09-02T05:36:46;2.73;;;2.13;;
9759;SDS011;4919;48.792;9.202;2022-09-02T05:39:13;5.63;;;2.40;;
9759;SDS011;4919;48.792;9.202;2022-09-02T05:41:41;5.67;;;2.30;;
9759;SDS011;4919;48.792;9.202;2022-09-02T05:44:10;8.20;;;2.43;;
9759;SDS011;4919;48.792;9.202;2022-09-02T05:46:38;3.83;;;2.27;;
9759;SDS011;4919;48.792;9.202;2022-09-02T05:49:05;3.67;;;2.60;;
9759;SDS011;4919;48.792;9.202;2022-09-02T05:51:46;5.40;;;2.30;;
9759;SDS011;4919;48.792;9.202;2022-09-02T05:54:23;3.93;;;2.30;;
9759;SDS011;4919;48.792;9.202;2022-09-02T05:56:54;4.20;;;2.40;;
9759;SDS011;4919;48.792;9.202;2022-09-02T05:59:24;3.50;;;2.60;;
9759;SDS011;4919;48.792;9.202;2022-09-02T06:01:54;2.77;;;2.40;;
9759;SDS011;4919;48.792;9.202;2022-09-02T06:04:22;2.70;;;2.30;;
9759;SDS011;4919;48.792;9.202;2022-09-02T06:06:49;4.67;;;2.13;;
9759;SDS011;4919;48.792;9.202;2022-09-02T06:09:20;3.57;;;2.40;;
9759;SDS011;4919;48.792;9.202;2022-09-02T06:11:49;7.10;;;2.60;;
9759;SDS011;4919;48.792;9.202;2022-09-02T06:14:25;3.87;;;2.50;;
9759;SDS011;4919;48.792;9.202;2022-09-02T06:16:54;6.40;;;2.30;;
9759;SDS011;4919;48.792;9.202;2022-09-02T06:19:27;2.97;;;2.40;;
9759;SDS011;4919;48.792;9.202;2022-09-02T06:21:57;4.53;;;2.50;;
9759;SDS011;4919;48.792;9.202;2022-09-02T06:24:25;3.90;;;2.23;;
9759;SDS011;4919;48.792;9.202;2022-09-02T06:26:54;3.43;;;2.00;;
9759;SDS011;4919;48.792;9.202;2022-09-02T06:29:23;4.47;;;2.20;;
9759;SDS011;4919;48.792;9.202;2022-09-02T06:31:52;3.80;;;2.20;;
9759;SDS011;4919;48.792;9.202;2022-09-02T06:34:22;3.27;;;2.13;;
9759;SDS011;4919;48.792;9.202;2022-09-02T06:36:54;3.30;;;2.27;;
9759;SDS011;4919;48.792;9.202;2022-09-02T06:39:23;3.03;;;2.20;;
9759;SDS011;4919;48.792;9.202;2022-09-02T06:41:53;3.60;;;2.30;;
9759;SDS011;4919;48.792;9.202;2022-09-02T06:44:24;5.47;;;2.60;;
9759;SDS011;4919;48.792;9.202;2022-09-02T06:46:53;5.03;;;2.40;;
9759;SDS011;4919;48.792;9.202;2022-09-02T06:49:22;4.00;;;2.30;;
9759;SDS011;4919;48.792;9.202;2022-09-02T06:51:51;3.70;;;2.63;;
9759;SDS011;4919;48.792;9.202;2022-09-02T06:54:26;4.67;;;2.70;;
9759;SDS011;4919;48.792;9.202;2022-09-02T06:57:04;4.40;;;2.47;;
9759;SDS011;4919;48.792;9.202;2022-09-02T06:59:34;4.37;;;2.30;;
9759;SDS011;4919;48.792;9.202;2022-09-02T07:02:01;4.30;;;2.63;;
9759;SDS011;4919;48.792;9.202;2022-09-02T07:04:30;3.27;;;2.33;;
9759;SDS011;4919;48.792;9.202;2022-09-02T07:07:21;3.73;;;2.40;;
9759;SDS011;4919;48.792;9.202;2022-09-02T07:09:57;3.43;;;2.40;;
9759;SDS011;4919;48.792;9.202;2022-09-02T07:12:24;4.40;;;2.53;;
9759;SDS011;4919;48.792;9.202;2022-09-02T07:15:00;3.77;;;2.10;;
9759;SDS011;4919;48.792;9.202;2022-09-02T07:17:32;5.20;;;2.60;;
9759;SDS011;4919;48.792;9.202;2022-09-02T07:20:03;5.07;;;2.07;;
9759;SDS011;4919;48.792;9.202;2022-09-02T07:22:37;2.80;;;2.30;;
9759;SDS011;4919;48.792;9.202;2022-09-02T07:25:07;4.03;;;2.30;;
9759;SDS011;4919;48.792;9.202;2022-09-02T07:27:35;4.20;;;2.10;;
9759;SDS011;4919;48.792;9.202;2022-09-02T07:30:03;2.80;;;1.90;;
9759;SDS011;4919;48.792;9.202;2022-09-02T07:32:35;7.03;;;2.30;;
9759;SDS011;4919;48.792;9.202;2022-09-02T07:35:05;2.90;;;2.40;;
9759;SDS011;4919;48.792;9.202;2022-09-02T07:37:33;2.97;;;2.30;;
9759;SDS011;4919;48.792;9.202;2022-09-02T07:40:04;4.30;;;2.20;;
9759;SDS011;4919;48.792;9.202;2022-09-02T07:42:33;5.50;;;2.17;;
9759;SDS011;4919;48.792;9.202;2022-09-02T07:45:00;5.57;;;2.30;;
9759;SDS011;4919;48.792;9.202;2022-09-02T07:47:27;2.73;;;2.33;;
9759;SDS011;4919;48.792;9.202;2022-09-02T07:49:54;4.17;;;2.27;;
9759;SDS011;4919;48.792;9.202;2022-09-02T07:52:41;2.60;;;1.90;;
9759;SDS011;4919;48.792;9.202;2022-09-02T07:55:09;2.20;;;2.00;;
9759;SDS011;4919;48.792;9.202;2022-09-02T07:57:41;2.40;;;1.90;;
9759;SDS011;4919;48.792;9.202;2022-09-02T08:00:09;4.43;;;1.97;;
9759;SDS011;4919;48.792;9.202;2022-09-02T08:02:40;2.37;;;1.83;;
9759;SDS011;4919;48.792;9.202;2022-09-02T08:05:11;2.10;;;1.90;;
9759;SDS011;4919;48.792;9.202;2022-09-02T08:07:38;5.53;;;2.17;;
9759;SDS011;4919;48.792;9.202;2022-09-02T08:10:06;2.17;;;1.80;;
9759;SDS011;4919;48.792;9.202;2022-09-02T08:12:36;3.33;;;1.97;;
9759;SDS011;4919;48.792;9.202;2022-09-02T08:15:05;3.07;;;1.90;;
9759;SDS011;4919;48.792;9.202;2022-09-02T08:17:33;4.63;;;2.10;;
9759;SDS011;4919;48.792;9.202;2022-09-02T08:20:00;3.13;;;1.50;;
9759;SDS011;4919;48.792;9.202;2022-09-02T08:22:34;2.73;;;2.00;;
9759;SDS011;4919;48.792;9.202;2022-09-02T08:25:02;4.63;;;2.27;;
9759;SDS011;4919;48.792;9.202;2022-09-02T08:27:29;3.70;;;1.80;;
9759;SDS011;4919;48.792;9.202;2022-09-02T08:29:57;4.87;;;1.80;;
9759;SDS011;4919;48.792;9.202;2022-09-02T08:32:24;3.83;;;1.90;;
9759;SDS011;4919;48.792;9.202;2022-09-02T08:34:51;2.83;;;1.70;;
9759;SDS011;4919;48.792;9.202;2022-09-02T08:37:17;3.03;;;1.80;;
9759;SDS011;4919;48.792;9.202;2022-09-02T08:39:46;2.50;;;1.50;;
9759;SDS011;4919;48.792;9.202;2022-09-02T08:44:49;2.97;;;1.63;;
9759;SDS011;4919;48.792;9.202;2022-09-02T08:47:24;2.23;;;1.57;;
9759;SDS011;4919;48.792;9.202;2022-09-02T08:49:56;2.00;;;1.37;;
9759;SDS011;4919;48.792;9.202;2022-09-02T08:54:58;2.47;;;1.77;;
9759;SDS011;4919;48.792;9.202;2022-09-02T08:57:27;2.53;;;1.40;;
9759;SDS011;4919;48.792;9.202;2022-09-02T08:59:57;2.13;;;1.40;;
9759;SDS011;4919;48.792;9.202;2022-09-02T09:05:24;3.83;;;1.70;;
9759;SDS011;4919;48.792;9.202;2022-09-02T09:17:00;1.90;;;1.53;;
9759;SDS011;4919;48.792;9.202;2022-09-02T09:19:53;1.50;;;1.40;;
9759;SDS011;4919;48.792;9.202;2022-09-02T09:22:25;1.67;;;1.40;;
9759;SDS011;4919;48.792;9.202;2022-09-02T09:24:56;1.57;;;1.37;;
9759;SDS011;4919;48.792;9.202;2022-09-02T09:27:23;2.37;;;1.40;;
9759;SDS011;4919;48.792;9.202;2022-09-02T09:29:51;2.77;;;1.60;;
9759;SDS011;4919;48.792;9.202;2022-09-02T09:37:29;3.80;;;1.50;;
9759;SDS011;4919;48.792;9.202;2022-09-02T09:40:19;2.37;;;1.43;;
9759;SDS011;4919;48.792;9.202;2022-09-02T09:45:40;3.07;;;1.37;;
9759;SDS011;4919;48.792;9.202;2022-09-02T09:48:22;1.83;;;1.40;;
9759;SDS011;4919;48.792;9.202;2022-09-02T09:53:23;1.50;;;1.40;;
9759;SDS011;4919;48.792;9.202;2022-09-02T09:55:55;2.23;;;1.40;;
9759;SDS011;4919;48.792;9.202;2022-09-02T09:59:06;1.63;;;1.40;;
9759;SDS011;4919;48.792;9.202;2022-09-02T10:07:09;1.67;;;1.50;;
9759;SDS011;4919;48.792;9.202;2022-09-02T10:09:38;1.83;;;1.67;;
9759;SDS011;4919;48.792;9.202;2022-09-02T10:12:08;2.97;;;1.60;;
9759;SDS011;4919;48.792;9.202;2022-09-02T10:14:42;3.23;;;1.50;;
9759;SDS011;4919;48.792;9.202;2022-09-02T10:54:06;2.03;;;1.20;;
9759;SDS011;4919;48.792;9.202;2022-09-02T10:56:40;2.67;;;1.40;;
9759;SDS011;4919;48.792;9.202;2022-09-02T10:59:38;2.23;;;1.37;;
9759;SDS011;4919;48.792;9.202;2022-09-02T11:02:27;2.83;;;1.50;;
9759;SDS011;4919;48.792;9.202;2022-09-02T11:05:04;2.60;;;1.40;;
9759;SDS011;4919;48.792;9.202;2022-09-02T11:07:40;2.40;;;1.30;;
9759;SDS011;4919;48.792;9.202;2022-09-02T11:10:27;2.30;;;1.40;;
9759;SDS011;4919;48.792;9.202;2022-09-02T11:13:02;2.10;;;1.50;;
9759;SDS011;4919;48.792;9.202;2022-09-02T11:21:09;2.27;;;1.53;;
9759;SDS011;4919;48.792;9.202;2022-09-02T11:27:00;3.93;;;1.47;;
9759;SDS011;4919;48.792;9.202;2022-09-02T11:30:03;3.40;;;1.33;;
9759;SDS011;4919;48.792;9.202;2022-09-02T11:35:37;1.97;;;1.40;;
9759;SDS011;4919;48.792;9.202;2022-09-02T11:38:06;1.80;;;1.40;;
9759;SDS011;4919;48.792;9.202;2022-09-02T11:43:36;1.33;;;1.20;;
9759;SDS011;4919;48.792;9.202;2022-09-02T11:49:38;1.30;;;1.20;;
9759;SDS011;4919;48.792;9.202;2022-09-02T11:55:07;2.60;;;1.60;;
9759;SDS011;4919;48.792;9.202;2022-09-02T11:57:42;2.30;;;1.57;;
9759;SDS011;4919;48.792;9.202;2022-09-02T12:00:31;7.90;;;1.80;;
9759;SDS011;4919;48.792;9.202;2022-09-02T12:06:03;2.20;;;1.40;;
9759;SDS011;4919;48.792;9.202;2022-09-02T12:11:00;2.93;;;1.50;;
9759;SDS011;4919;48.792;9.202;2022-09-02T12:18:45;3.27;;;1.50;;
9759;SDS011;4919;48.792;9.202;2022-09-02T12:21:36;1.97;;;1.40;;
9759;SDS011;4919;48.792;9.202;2022-09-02T12:24:47;2.77;;;1.60;;
9759;SDS011;4919;48.792;9.202;2022-09-02T12:27:21;1.57;;;1.40;;
9759;SDS011;4919;48.792;9.202;2022-09-02T12:29:58;2.67;;;1.60;;
9759;SDS011;4919;48.792;9.202;2022-09-02T12:38:44;1.70;;;1.50;;
9759;SDS011;4919;48.792;9.202;2022-09-02T12:46:12;3.70;;;1.87;;
9759;SDS011;4919;48.792;9.202;2022-09-02T12:52:13;1.57;;;1.37;;
9759;SDS011;4919;48.792;9.202;2022-09-02T12:55:02;3.77;;;1.63;;
9759;SDS011;4919;48.792;9.202;2022-09-02T12:57:38;1.77;;;1.50;;
9759;SDS011;4919;48.792;9.202;2022-09-02T13:00:07;1.63;;;1.47;;
9759;SDS011;4919;48.792;9.202;2022-09-02T13:02:58;5.43;;;1.87;;
9759;SDS011;4919;48.792;9.202;2022-09-02T13:05:54;3.23;;;1.60;;
9759;SDS011;4919;48.792;9.202;2022-09-02T13:25:13;2.53;;;1.40;;
9759;SDS011;4919;48.792;9.202;2022-09-02T13:33:18;3.37;;;1.43;;
9759;SDS011;4919;48.792;9.202;2022-09-02T13:35:45;2.13;;;1.33;;
9759;SDS011;4919;48.792;9.202;2022-09-02T13:38:21;3.07;;;1.57;;
9759;SDS011;4919;48.792;9.202;2022-09-02T13:40:49;1.70;;;1.60;;
9759;SDS011;4919;48.792;9.202;2022-09-02T13:43:17;2.73;;;1.60;;
9759;SDS011;4919;48.792;9.202;2022-09-02T13:45:49;1.97;;;1.60;;
9759;SDS011;4919;48.792;9.202;2022-09-02T13:48:19;1.70;;;1.50;;
9759;SDS011;4919;48.792;9.202;2022-09-02T13:50:52;1.57;;;1.47;;
9759;SDS011;4919;48.792;9.202;2022-09-02T13:53:38;4.27;;;1.70;;
9759;SDS011;4919;48.792;9.202;2022-09-02T13:56:28;1.93;;;1.40;;
9759;SDS011;4919;48.792;9.202;2022-09-02T13:58:56;1.77;;;1.40;;
9759;SDS011;4919;48.792;9.202;2022-09-02T14:03:58;1.90;;;1.50;;
9759;SDS011;4919;48.792;9.202;2022-09-02T14:06:34;1.90;;;1.50;;
9759;SDS011;4919;48.792;9.202;2022-09-02T14:09:04;1.97;;;1.30;;
9759;SDS011;4919;48.792;9.202;2022-09-02T14:11:41;2.83;;;1.43;;
9759;SDS011;4919;48.792;9.202;2022-09-02T14:14:18;5.77;;;1.60;;
9759;SDS011;4919;48.792;9.202;2022-09-02T14:16:49;1.43;;;1.23;;
9759;SDS011;4919;48.792;9.202;2022-09-02T14:21:54;2.80;;;1.40;;
9759;SDS011;4919;48.792;9.202;2022-09-02T14:24:26;2.20;;;1.50;;
9759;SDS011;4919;48.792;9.202;2022-09-02T14:26:55;1.77;;;1.40;;
9759;SDS011;4919;48.792;9.202;2022-09-02T14:29:24;1.60;;;1.50;;
9759;SDS011;4919;48.792;9.202;2022-09-02T14:34:39;2.23;;;1.40;;
9759;SDS011;4919;48.792;9.202;2022-09-02T14:37:18;2.17;;;1.30;;
9759;SDS011;4919;48.792;9.202;2022-09-02T14:42:18;1.70;;;1.40;;
9759;SDS011;4919;48.792;9.202;2022-09-02T14:44:45;3.27;;;1.33;;
9759;SDS011;4919;48.792;9.202;2022-09-02T14:47:13;2.60;;;1.33;;
9759;SDS011;4919;48.792;9.202;2022-09-02T14:49:49;3.80;;;1.30;;
9759;SDS011;4919;48.792;9.202;2022-09-02T14:54:56;1.50;;;1.40;;
9759;SDS011;4919;48.792;9.202;2022-09-02T14:57:24;1.07;;;1.03;;
9759;SDS011;4919;48.792;9.202;2022-09-02T15:00:05;2.13;;;1.40;;
9759;SDS011;4919;48.792;9.202;2022-09-02T15:02:35;1.67;;;1.20;;
9759;SDS011;4919;48.792;9.202;2022-09-02T15:05:06;2.40;;;1.40;;
9759;SDS011;4919;48.792;9.202;2022-09-02T15:07:35;1.30;;;1.20;;
9759;SDS011;4919;48.792;9.202;2022-09-02T15:10:02;1.30;;;1.20;;
9759;SDS011;4919;48.792;9.202;2022-09-02T15:12:31;1.67;;;1.10;;
9759;SDS011;4919;48.792;9.202;2022-09-02T15:15:00;2.47;;;1.33;;
9759;SDS011;4919;48.792;9.202;2022-09-02T15:17:27;2.20;;;1.30;;
9759;SDS011;4919;48.792;9.202;2022-09-02T15:19:55;1.70;;;1.27;;
9759;SDS011;4919;48.792;9.202;2022-09-02T15:22:23;1.73;;;1.33;;
9759;SDS011;4919;48.792;9.202;2022-09-02T15:24:50;3.13;;;1.37;;
9759;SDS011;4919;48.792;9.202;2022-09-02T15:27:17;1.80;;;1.40;;
9759;SDS011;4919;48.792;9.202;2022-09-02T15:29:47;2.03;;;1.30;;
9759;SDS011;4919;48.792;9.202;2022-09-02T15:32:14;2.20;;;1.30;;
9759;SDS011;4919;48.792;9.202;2022-09-02T15:34:41;2.83;;;1.30;;
9759;SDS011;4919;48.792;9.202;2022-09-02T15:37:08;1.70;;;1.10;;
9759;SDS011;4919;48.792;9.202;2022-09-02T15:39:38;1.57;;;1.17;;
9759;SDS011;4919;48.792;9.202;2022-09-02T15:42:06;1.50;;;1.40;;
9759;SDS011;4919;48.792;9.202;2022-09-02T15:44:32;3.10;;;1.40;;
9759;SDS011;4919;48.792;9.202;2022-09-02T15:46:59;2.63;;;1.50;;
9759;SDS011;4919;48.792;9.202;2022-09-02T15:49:27;1.60;;;1.30;;
9759;SDS011;4919;48.792;9.202;2022-09-02T15:51:54;1.37;;;1.20;;
9759;SDS011;4919;48.792;9.202;2022-09-02T15:54:21;1.70;;;1.17;;
9759;SDS011;4919;48.792;9.202;2022-09-02T15:56:52;2.13;;;1.20;;
9759;SDS011;4919;48.792;9.202;2022-09-02T15:59:21;1.40;;;1.17;;
9759;SDS011;4919;48.792;9.202;2022-09-02T16:01:49;1.60;;;1.10;;
9759;SDS011;4919;48.792;9.202;2022-09-02T16:04:17;1.83;;;1.33;;
9759;SDS011;4919;48.792;9.202;2022-09-02T16:06:45;1.93;;;1.27;;
9759;SDS011;4919;48.792;9.202;2022-09-02T16:09:17;1.70;;;1.40;;
9759;SDS011;4919;48.792;9.202;2022-09-02T16:11:46;2.87;;;1.40;;
9759;SDS011;4919;48.792;9.202;2022-09-02T16:14:15;2.63;;;1.20;;
9759;SDS011;4919;48.792;9.202;2022-09-02T16:16:46;1.93;;;1.30;;
9759;SDS011;4919;48.792;9.202;2022-09-02T16:19:14;1.47;;;1.30;;
9759;SDS011;4919;48.792;9.202;2022-09-02T16:21:44;1.77;;;1.10;;
9759;SDS011;4919;48.792;9.202;2022-09-02T16:24:10;2.70;;;1.23;;
9759;SDS011;4919;48.792;9.202;2022-09-02T16:26:38;2.93;;;1.10;;
9759;SDS011;4919;48.792;9.202;2022-09-02T16:29:07;3.07;;;1.40;;
9759;SDS011;4919;48.792;9.202;2022-09-02T16:31:37;1.77;;;1.20;;
9759;SDS011;4919;48.792;9.202;2022-09-02T16:34:14;1.10;;;1.10;;
9759;SDS011;4919;48.792;9.202;2022-09-02T16:36:43;4.10;;;1.63;;
9759;SDS011;4919;48.792;9.202;2022-09-02T16:39:12;1.83;;;1.20;;
9759;SDS011;4919;48.792;9.202;2022-09-02T16:41:40;1.90;;;1.10;;
9759;SDS011;4919;48.792;9.202;2022-09-02T16:44:16;1.97;;;1.20;;
9759;SDS011;4919;48.792;9.202;2022-09-02T16:46:45;2.77;;;1.20;;
9759;SDS011;4919;48.792;9.202;2022-09-02T16:49:13;1.40;;;1.30;;
9759;SDS011;4919;48.792;9.202;2022-09-02T16:51:48;1.43;;;1.20;;
9759;SDS011;4919;48.792;9.202;2022-09-02T16:54:24;1.30;;;1.20;;
9759;SDS011;4919;48.792;9.202;2022-09-02T16:56:57;1.40;;;1.20;;
9759;SDS011;4919;48.792;9.202;2022-09-02T16:59:25;1.57;;;1.40;;
9759;SDS011;4919;48.792;9.202;2022-09-02T17:01:52;1.57;;;1.40;;
9759;SDS011;4919;48.792;9.202;2022-09-02T17:04:19;1.87;;;1.20;;
9759;SDS011;4919;48.792;9.202;2022-09-02T17:06:46;2.10;;;1.20;;
9759;SDS011;4919;48.792;9.202;2022-09-02T17:09:13;1.47;;;1.37;;
9759;SDS011;4919;48.792;9.202;2022-09-02T17:11:41;1.53;;;1.30;;
9759;SDS011;4919;48.792;9.202;2022-09-02T17:14:11;1.77;;;1.30;;
9759;SDS011;4919;48.792;9.202;2022-09-02T17:16:43;2.43;;;1.37;;
9759;SDS011;4919;48.792;9.202;2022-09-02T17:19:12;1.20;;;1.07;;
9759;SDS011;4919;48.792;9.202;2022-09-02T17:21:50;2.00;;;1.10;;
9759;SDS011;4919;48.792;9.202;2022-09-02T17:24:19;1.43;;;1.30;;
9759;SDS011;4919;48.792;9.202;2022-09-02T17:26:49;3.07;;;1.13;;
9759;SDS011;4919;48.792;9.202;2022-09-02T17:29:18;1.40;;;1.10;;
9759;SDS011;4919;48.792;9.202;2022-09-02T17:32:06;1.20;;;1.10;;
9759;SDS011;4919;48.792;9.202;2022-09-02T17:34:33;1.27;;;1.17;;
9759;SDS011;4919;48.792;9.202;2022-09-02T17:37:00;1.13;;;1.13;;
9759;SDS011;4919;48.792;9.202;2022-09-02T17:39:27;1.83;;;1.20;;
9759;SDS011;4919;48.792;9.202;2022-09-02T17:41:54;2.07;;;1.20;;
9759;SDS011;4919;48.792;9.202;2022-09-02T17:44:26;2.23;;;1.30;;
9759;SDS011;4919;48.792;9.202;2022-09-02T17:47:13;2.30;;;1.20;;
9759;SDS011;4919;48.792;9.202;2022-09-02T17:49:42;3.17;;;1.40;;
9759;SDS011;4919;48.792;9.202;2022-09-02T17:52:15;6.67;;;1.90;;
9759;SDS011;4919;48.792;9.202;2022-09-02T17:54:44;2.13;;;1.37;;
9759;SDS011;4919;48.792;9.202;2022-09-02T17:57:21;2.73;;;1.60;;
9759;SDS011;4919;48.792;9.202;2022-09-02T18:08:31;2.43;;;1.83;;
9759;SDS011;4919;48.792;9.202;2022-09-02T18:11:20;5.03;;;1.87;;
9759;SDS011;4919;48.792;9.202;2022-09-02T18:14:08;3.53;;;1.70;;
9759;SDS011;4919;48.792;9.202;2022-09-02T18:16:53;2.83;;;1.60;;
9759;SDS011;4919;48.792;9.202;2022-09-02T18:19:36;3.73;;;1.47;;
9759;SDS011;4919;48.792;9.202;2022-09-02T18:30:19;2.27;;;1.40;;
9759;SDS011;4919;48.792;9.202;2022-09-02T18:36:04;2.13;;;1.33;;